Terminal Aerodrome Forecast
Issued by NWS

Home | Current Version | Previous Version | Text Only | Print | Product List | Glossary On
Versions: 1 2 3 4 5 6 7 8 9 10 11 12 13
000
FTUS42 TJSJ 220539
TAFJBQ
TAF
TJBQ 220539Z 2206/2306 12004KT P6SM SCT025 SCT070
     FM221400 07012KT P6SM SCT025 SCT070
     FM222330 VRB05KT P6SM SCT025
      AMD NOT SKED TIL 221100=

USA.gov is the U.S. government's official web portal to all federal, state and local government web resources and services.